sensor_id;sensor_type;location;lat;lon;timestamp;P1;durP1;ratioP1;P2;durP2;ratioP2
69894;SDS011;57172;52.034;5.090;2023-03-03T00:01:42;17.55;;;9.50;;
69894;SDS011;57172;52.034;5.090;2023-03-03T00:04:09;17.27;;;9.88;;
69894;SDS011;57172;52.034;5.090;2023-03-03T00:06:36;19.88;;;10.27;;
69894;SDS011;57172;52.034;5.090;2023-03-03T00:09:03;15.70;;;8.88;;
69894;SDS011;57172;52.034;5.090;2023-03-03T00:11:30;20.52;;;9.95;;
69894;SDS011;57172;52.034;5.090;2023-03-03T00:13:56;17.02;;;9.57;;
69894;SDS011;57172;52.034;5.090;2023-03-03T00:16:27;18.90;;;9.55;;
69894;SDS011;57172;52.034;5.090;2023-03-03T00:18:57;19.38;;;9.38;;
69894;SDS011;57172;52.034;5.090;2023-03-03T00:21:32;18.83;;;9.80;;
69894;SDS011;57172;52.034;5.090;2023-03-03T00:26:41;18.05;;;9.05;;
69894;SDS011;57172;52.034;5.090;2023-03-03T00:29:33;17.50;;;9.13;;
69894;SDS011;57172;52.034;5.090;2023-03-03T00:34:41;21.25;;;9.25;;
69894;SDS011;57172;52.034;5.090;2023-03-03T00:37:25;19.38;;;9.65;;
69894;SDS011;57172;52.034;5.090;2023-03-03T00:40:20;17.17;;;9.07;;
69894;SDS011;57172;52.034;5.090;2023-03-03T00:42:58;21.05;;;9.20;;
69894;SDS011;57172;52.034;5.090;2023-03-03T00:45:30;18.92;;;9.32;;
69894;SDS011;57172;52.034;5.090;2023-03-03T00:48:08;18.17;;;9.38;;
69894;SDS011;57172;52.034;5.090;2023-03-03T00:50:49;19.67;;;10.05;;
69894;SDS011;57172;52.034;5.090;2023-03-03T00:53:18;23.17;;;10.00;;
69894;SDS011;57172;52.034;5.090;2023-03-03T00:55:47;17.98;;;9.40;;
69894;SDS011;57172;52.034;5.090;2023-03-03T00:58:16;19.42;;;9.55;;
69894;SDS011;57172;52.034;5.090;2023-03-03T01:00:45;19.73;;;9.80;;
69894;SDS011;57172;52.034;5.090;2023-03-03T01:03:20;20.75;;;9.73;;
69894;SDS011;57172;52.034;5.090;2023-03-03T01:05:50;19.88;;;9.93;;
69894;SDS011;57172;52.034;5.090;2023-03-03T01:08:18;19.30;;;10.07;;
69894;SDS011;57172;52.034;5.090;2023-03-03T01:10:50;19.13;;;9.75;;
69894;SDS011;57172;52.034;5.090;2023-03-03T01:13:20;20.55;;;10.15;;
69894;SDS011;57172;52.034;5.090;2023-03-03T01:15:48;19.70;;;9.60;;
69894;SDS011;57172;52.034;5.090;2023-03-03T01:18:16;19.92;;;9.88;;
69894;SDS011;57172;52.034;5.090;2023-03-03T01:20:43;22.83;;;10.00;;
69894;SDS011;57172;52.034;5.090;2023-03-03T01:23:10;19.73;;;9.75;;
69894;SDS011;57172;52.034;5.090;2023-03-03T01:25:38;24.70;;;10.50;;
69894;SDS011;57172;52.034;5.090;2023-03-03T01:28:05;19.90;;;9.85;;
69894;SDS011;57172;52.034;5.090;2023-03-03T01:30:32;20.10;;;10.10;;
69894;SDS011;57172;52.034;5.090;2023-03-03T01:33:00;21.58;;;10.20;;
69894;SDS011;57172;52.034;5.090;2023-03-03T01:35:27;22.00;;;10.32;;
69894;SDS011;57172;52.034;5.090;2023-03-03T01:37:55;22.38;;;11.27;;
69894;SDS011;57172;52.034;5.090;2023-03-03T01:40:28;22.15;;;10.93;;
69894;SDS011;57172;52.034;5.090;2023-03-03T01:43:01;25.02;;;10.90;;
69894;SDS011;57172;52.034;5.090;2023-03-03T01:45:29;22.73;;;10.95;;
69894;SDS011;57172;52.034;5.090;2023-03-03T01:50:31;27.05;;;12.30;;
69894;SDS011;57172;52.034;5.090;2023-03-03T01:53:22;23.80;;;11.02;;
69894;SDS011;57172;52.034;5.090;2023-03-03T01:55:57;24.08;;;11.27;;
69894;SDS011;57172;52.034;5.090;2023-03-03T01:58:27;23.95;;;11.30;;
69894;SDS011;57172;52.034;5.090;2023-03-03T02:01:08;27.52;;;12.13;;
69894;SDS011;57172;52.034;5.090;2023-03-03T02:03:40;29.00;;;12.55;;
69894;SDS011;57172;52.034;5.090;2023-03-03T02:06:09;28.58;;;11.52;;
69894;SDS011;57172;52.034;5.090;2023-03-03T02:08:44;26.00;;;12.20;;
69894;SDS011;57172;52.034;5.090;2023-03-03T02:11:17;27.73;;;12.23;;
69894;SDS011;57172;52.034;5.090;2023-03-03T02:13:46;26.75;;;11.82;;
69894;SDS011;57172;52.034;5.090;2023-03-03T02:16:14;28.45;;;12.60;;
69894;SDS011;57172;52.034;5.090;2023-03-03T02:18:42;24.95;;;11.80;;
69894;SDS011;57172;52.034;5.090;2023-03-03T02:21:10;26.10;;;12.27;;
69894;SDS011;57172;52.034;5.090;2023-03-03T02:23:52;27.50;;;12.20;;
69894;SDS011;57172;52.034;5.090;2023-03-03T02:26:40;26.75;;;12.32;;
69894;SDS011;57172;52.034;5.090;2023-03-03T02:29:09;26.98;;;12.25;;
69894;SDS011;57172;52.034;5.090;2023-03-03T02:31:37;26.17;;;12.38;;
69894;SDS011;57172;52.034;5.090;2023-03-03T02:34:05;27.25;;;12.38;;
69894;SDS011;57172;52.034;5.090;2023-03-03T02:36:33;28.77;;;12.85;;
69894;SDS011;57172;52.034;5.090;2023-03-03T02:39:25;25.95;;;12.05;;
69894;SDS011;57172;52.034;5.090;2023-03-03T02:44:51;24.60;;;11.15;;
69894;SDS011;57172;52.034;5.090;2023-03-03T02:47:18;25.45;;;11.30;;
69894;SDS011;57172;52.034;5.090;2023-03-03T02:49:45;27.65;;;11.88;;
69894;SDS011;57172;52.034;5.090;2023-03-03T02:52:12;26.40;;;11.50;;
69894;SDS011;57172;52.034;5.090;2023-03-03T02:54:43;27.65;;;12.43;;
69894;SDS011;57172;52.034;5.090;2023-03-03T02:57:10;29.45;;;12.43;;
69894;SDS011;57172;52.034;5.090;2023-03-03T02:59:37;28.02;;;11.90;;
69894;SDS011;57172;52.034;5.090;2023-03-03T03:02:08;26.38;;;11.52;;
69894;SDS011;57172;52.034;5.090;2023-03-03T03:04:36;28.67;;;11.30;;
69894;SDS011;57172;52.034;5.090;2023-03-03T03:07:03;26.73;;;11.07;;
69894;SDS011;57172;52.034;5.090;2023-03-03T03:09:32;30.50;;;12.88;;
69894;SDS011;57172;52.034;5.090;2023-03-03T03:11:59;26.40;;;11.18;;
69894;SDS011;57172;52.034;5.090;2023-03-03T03:14:30;29.55;;;11.82;;
69894;SDS011;57172;52.034;5.090;2023-03-03T03:16:57;28.90;;;12.15;;
69894;SDS011;57172;52.034;5.090;2023-03-03T03:19:26;27.63;;;11.73;;
69894;SDS011;57172;52.034;5.090;2023-03-03T03:21:57;31.55;;;12.18;;
69894;SDS011;57172;52.034;5.090;2023-03-03T03:24:25;28.92;;;12.20;;
69894;SDS011;57172;52.034;5.090;2023-03-03T03:26:57;30.25;;;11.98;;
69894;SDS011;57172;52.034;5.090;2023-03-03T03:29:25;30.17;;;11.98;;
69894;SDS011;57172;52.034;5.090;2023-03-03T03:31:52;29.63;;;12.05;;
69894;SDS011;57172;52.034;5.090;2023-03-03T03:34:19;28.65;;;12.27;;
69894;SDS011;57172;52.034;5.090;2023-03-03T03:36:47;31.60;;;12.13;;
69894;SDS011;57172;52.034;5.090;2023-03-03T03:39:16;35.58;;;12.55;;
69894;SDS011;57172;52.034;5.090;2023-03-03T03:41:45;33.72;;;12.38;;
69894;SDS011;57172;52.034;5.090;2023-03-03T03:44:12;30.38;;;11.98;;
69894;SDS011;57172;52.034;5.090;2023-03-03T03:46:39;30.17;;;12.63;;
69894;SDS011;57172;52.034;5.090;2023-03-03T03:49:06;28.95;;;11.75;;
69894;SDS011;57172;52.034;5.090;2023-03-03T03:51:33;31.45;;;11.70;;
69894;SDS011;57172;52.034;5.090;2023-03-03T03:54:01;32.28;;;12.43;;
69894;SDS011;57172;52.034;5.090;2023-03-03T03:56:28;31.85;;;12.23;;
69894;SDS011;57172;52.034;5.090;2023-03-03T03:58:57;27.67;;;11.00;;
69894;SDS011;57172;52.034;5.090;2023-03-03T04:01:26;29.40;;;11.02;;
69894;SDS011;57172;52.034;5.090;2023-03-03T04:03:53;29.85;;;11.50;;
69894;SDS011;57172;52.034;5.090;2023-03-03T04:06:22;28.45;;;11.18;;
69894;SDS011;57172;52.034;5.090;2023-03-03T04:08:50;27.40;;;10.50;;
69894;SDS011;57172;52.034;5.090;2023-03-03T04:11:20;27.17;;;11.48;;
69894;SDS011;57172;52.034;5.090;2023-03-03T04:13:47;26.65;;;10.15;;
69894;SDS011;57172;52.034;5.090;2023-03-03T04:16:14;23.63;;;9.73;;
69894;SDS011;57172;52.034;5.090;2023-03-03T04:18:42;23.40;;;9.85;;
69894;SDS011;57172;52.034;5.090;2023-03-03T04:21:13;23.27;;;9.00;;
69894;SDS011;57172;52.034;5.090;2023-03-03T04:23:42;22.05;;;8.35;;
69894;SDS011;57172;52.034;5.090;2023-03-03T04:26:09;22.52;;;8.88;;
69894;SDS011;57172;52.034;5.090;2023-03-03T04:28:37;23.10;;;9.05;;
69894;SDS011;57172;52.034;5.090;2023-03-03T04:31:05;24.20;;;8.85;;
69894;SDS011;57172;52.034;5.090;2023-03-03T04:33:32;24.55;;;8.68;;
69894;SDS011;57172;52.034;5.090;2023-03-03T04:36:00;23.02;;;9.40;;
69894;SDS011;57172;52.034;5.090;2023-03-03T04:38:31;22.75;;;8.68;;
69894;SDS011;57172;52.034;5.090;2023-03-03T04:40:58;22.80;;;9.07;;
69894;SDS011;57172;52.034;5.090;2023-03-03T04:43:28;22.08;;;9.13;;
69894;SDS011;57172;52.034;5.090;2023-03-03T04:45:56;24.27;;;9.30;;
69894;SDS011;57172;52.034;5.090;2023-03-03T04:48:23;22.45;;;9.05;;
69894;SDS011;57172;52.034;5.090;2023-03-03T04:50:50;23.23;;;8.90;;
69894;SDS011;57172;52.034;5.090;2023-03-03T04:53:18;20.42;;;8.63;;
69894;SDS011;57172;52.034;5.090;2023-03-03T04:55:45;22.65;;;8.15;;
69894;SDS011;57172;52.034;5.090;2023-03-03T04:58:12;20.00;;;8.55;;
69894;SDS011;57172;52.034;5.090;2023-03-03T05:00:39;21.45;;;8.63;;
69894;SDS011;57172;52.034;5.090;2023-03-03T05:03:07;20.83;;;7.78;;
69894;SDS011;57172;52.034;5.090;2023-03-03T05:05:39;23.27;;;8.18;;
69894;SDS011;57172;52.034;5.090;2023-03-03T05:08:06;21.42;;;8.40;;
69894;SDS011;57172;52.034;5.090;2023-03-03T05:10:33;25.55;;;8.70;;
69894;SDS011;57172;52.034;5.090;2023-03-03T05:13:00;24.92;;;8.20;;
69894;SDS011;57172;52.034;5.090;2023-03-03T05:15:27;24.83;;;8.38;;
69894;SDS011;57172;52.034;5.090;2023-03-03T05:17:54;29.63;;;8.65;;
69894;SDS011;57172;52.034;5.090;2023-03-03T05:20:22;33.67;;;8.23;;
69894;SDS011;57172;52.034;5.090;2023-03-03T05:22:50;25.98;;;8.43;;
69894;SDS011;57172;52.034;5.090;2023-03-03T05:25:17;30.67;;;9.38;;
69894;SDS011;57172;52.034;5.090;2023-03-03T05:27:44;39.60;;;9.68;;
69894;SDS011;57172;52.034;5.090;2023-03-03T05:30:11;40.50;;;9.68;;
69894;SDS011;57172;52.034;5.090;2023-03-03T05:32:38;25.88;;;9.18;;
69894;SDS011;57172;52.034;5.090;2023-03-03T05:35:06;27.92;;;10.05;;
69894;SDS011;57172;52.034;5.090;2023-03-03T05:37:33;30.23;;;10.70;;
69894;SDS011;57172;52.034;5.090;2023-03-03T05:40:00;24.67;;;8.88;;
69894;SDS011;57172;52.034;5.090;2023-03-03T05:42:27;26.92;;;9.45;;
69894;SDS011;57172;52.034;5.090;2023-03-03T05:44:54;26.73;;;9.57;;
69894;SDS011;57172;52.034;5.090;2023-03-03T05:47:21;31.80;;;9.77;;
69894;SDS011;57172;52.034;5.090;2023-03-03T05:49:48;33.13;;;10.85;;
69894;SDS011;57172;52.034;5.090;2023-03-03T05:52:15;31.08;;;9.65;;
69894;SDS011;57172;52.034;5.090;2023-03-03T05:54:41;33.38;;;9.57;;
69894;SDS011;57172;52.034;5.090;2023-03-03T05:57:09;26.95;;;9.30;;
69894;SDS011;57172;52.034;5.090;2023-03-03T05:59:35;32.28;;;9.52;;
69894;SDS011;57172;52.034;5.090;2023-03-03T06:02:03;29.83;;;9.02;;
69894;SDS011;57172;52.034;5.090;2023-03-03T06:04:29;23.40;;;8.85;;
69894;SDS011;57172;52.034;5.090;2023-03-03T06:06:56;27.42;;;8.80;;
69894;SDS011;57172;52.034;5.090;2023-03-03T06:09:23;22.77;;;8.35;;
69894;SDS011;57172;52.034;5.090;2023-03-03T06:11:51;25.48;;;9.15;;
69894;SDS011;57172;52.034;5.090;2023-03-03T06:14:19;22.38;;;8.07;;
69894;SDS011;57172;52.034;5.090;2023-03-03T06:16:46;27.60;;;8.98;;
69894;SDS011;57172;52.034;5.090;2023-03-03T06:19:14;26.52;;;9.65;;
69894;SDS011;57172;52.034;5.090;2023-03-03T06:21:41;27.63;;;8.70;;
69894;SDS011;57172;52.034;5.090;2023-03-03T06:24:08;27.48;;;9.23;;
69894;SDS011;57172;52.034;5.090;2023-03-03T06:26:35;26.02;;;8.85;;
69894;SDS011;57172;52.034;5.090;2023-03-03T06:29:02;24.85;;;8.35;;
69894;SDS011;57172;52.034;5.090;2023-03-03T06:31:29;27.88;;;8.75;;
69894;SDS011;57172;52.034;5.090;2023-03-03T06:33:56;26.23;;;8.98;;
69894;SDS011;57172;52.034;5.090;2023-03-03T06:36:22;31.13;;;9.50;;
69894;SDS011;57172;52.034;5.090;2023-03-03T06:38:50;27.50;;;8.68;;
69894;SDS011;57172;52.034;5.090;2023-03-03T06:41:17;27.02;;;8.73;;
69894;SDS011;57172;52.034;5.090;2023-03-03T06:43:44;24.00;;;8.80;;
69894;SDS011;57172;52.034;5.090;2023-03-03T06:46:11;26.42;;;8.77;;
69894;SDS011;57172;52.034;5.090;2023-03-03T06:48:38;24.17;;;9.00;;
69894;SDS011;57172;52.034;5.090;2023-03-03T06:51:13;24.08;;;9.13;;
69894;SDS011;57172;52.034;5.090;2023-03-03T06:53:44;25.88;;;8.93;;
69894;SDS011;57172;52.034;5.090;2023-03-03T06:56:11;23.05;;;9.50;;
69894;SDS011;57172;52.034;5.090;2023-03-03T06:58:38;24.92;;;8.50;;
69894;SDS011;57172;52.034;5.090;2023-03-03T07:01:09;25.98;;;9.10;;
69894;SDS011;57172;52.034;5.090;2023-03-03T07:03:41;25.42;;;9.40;;
69894;SDS011;57172;52.034;5.090;2023-03-03T07:08:50;25.98;;;9.25;;
69894;SDS011;57172;52.034;5.090;2023-03-03T07:11:19;26.30;;;9.55;;
69894;SDS011;57172;52.034;5.090;2023-03-03T07:13:49;27.98;;;8.98;;
69894;SDS011;57172;52.034;5.090;2023-03-03T07:16:18;28.27;;;8.95;;
69894;SDS011;57172;52.034;5.090;2023-03-03T07:18:53;23.98;;;8.68;;
69894;SDS011;57172;52.034;5.090;2023-03-03T07:21:30;27.60;;;9.45;;
69894;SDS011;57172;52.034;5.090;2023-03-03T07:24:00;21.60;;;8.23;;
69894;SDS011;57172;52.034;5.090;2023-03-03T07:26:38;25.30;;;8.75;;
69894;SDS011;57172;52.034;5.090;2023-03-03T07:31:53;23.05;;;8.65;;
69894;SDS011;57172;52.034;5.090;2023-03-03T07:37:21;29.00;;;9.38;;
69894;SDS011;57172;52.034;5.090;2023-03-03T07:39:56;23.27;;;9.18;;
69894;SDS011;57172;52.034;5.090;2023-03-03T07:42:25;21.67;;;9.05;;
69894;SDS011;57172;52.034;5.090;2023-03-03T07:45:19;22.20;;;8.98;;
69894;SDS011;57172;52.034;5.090;2023-03-03T07:48:15;23.42;;;8.25;;
69894;SDS011;57172;52.034;5.090;2023-03-03T07:50:50;21.73;;;8.50;;
69894;SDS011;57172;52.034;5.090;2023-03-03T07:53:20;23.17;;;8.50;;
69894;SDS011;57172;52.034;5.090;2023-03-03T07:55:53;28.65;;;8.82;;
69894;SDS011;57172;52.034;5.090;2023-03-03T07:58:28;22.80;;;8.02;;
69894;SDS011;57172;52.034;5.090;2023-03-03T08:04:17;18.80;;;7.80;;
69894;SDS011;57172;52.034;5.090;2023-03-03T08:06:52;20.13;;;8.15;;
69894;SDS011;57172;52.034;5.090;2023-03-03T08:09:36;19.65;;;7.35;;
69894;SDS011;57172;52.034;5.090;2023-03-03T08:15:18;21.38;;;7.82;;
69894;SDS011;57172;52.034;5.090;2023-03-03T08:17:49;18.92;;;7.75;;
69894;SDS011;57172;52.034;5.090;2023-03-03T08:23:16;18.20;;;8.15;;
69894;SDS011;57172;52.034;5.090;2023-03-03T08:25:45;16.17;;;7.32;;
69894;SDS011;57172;52.034;5.090;2023-03-03T08:28:12;17.17;;;7.05;;
69894;SDS011;57172;52.034;5.090;2023-03-03T08:30:39;15.63;;;6.95;;
69894;SDS011;57172;52.034;5.090;2023-03-03T08:33:06;19.65;;;7.35;;
69894;SDS011;57172;52.034;5.090;2023-03-03T08:35:33;17.23;;;7.13;;
69894;SDS011;57172;52.034;5.090;2023-03-03T08:38:00;18.83;;;6.78;;
69894;SDS011;57172;52.034;5.090;2023-03-03T08:40:27;15.32;;;6.93;;
69894;SDS011;57172;52.034;5.090;2023-03-03T08:42:55;15.18;;;6.30;;
69894;SDS011;57172;52.034;5.090;2023-03-03T08:45:23;16.27;;;6.72;;
69894;SDS011;57172;52.034;5.090;2023-03-03T08:47:51;15.52;;;6.68;;
69894;SDS011;57172;52.034;5.090;2023-03-03T08:50:18;17.25;;;6.70;;
69894;SDS011;57172;52.034;5.090;2023-03-03T08:52:45;14.05;;;6.35;;
69894;SDS011;57172;52.034;5.090;2023-03-03T08:55:13;16.58;;;6.95;;
69894;SDS011;57172;52.034;5.090;2023-03-03T08:57:40;13.50;;;5.65;;
69894;SDS011;57172;52.034;5.090;2023-03-03T09:00:08;13.27;;;5.65;;
69894;SDS011;57172;52.034;5.090;2023-03-03T09:02:37;14.48;;;5.45;;
69894;SDS011;57172;52.034;5.090;2023-03-03T09:05:04;13.80;;;6.40;;
69894;SDS011;57172;52.034;5.090;2023-03-03T09:07:32;14.65;;;5.93;;
69894;SDS011;57172;52.034;5.090;2023-03-03T09:09:59;11.13;;;5.40;;
69894;SDS011;57172;52.034;5.090;2023-03-03T09:12:30;13.73;;;6.00;;
69894;SDS011;57172;52.034;5.090;2023-03-03T09:15:12;20.80;;;8.63;;
69894;SDS011;57172;52.034;5.090;2023-03-03T09:17:43;12.93;;;6.15;;
69894;SDS011;57172;52.034;5.090;2023-03-03T09:22:48;12.48;;;5.70;;
69894;SDS011;57172;52.034;5.090;2023-03-03T09:25:21;10.60;;;5.63;;
69894;SDS011;57172;52.034;5.090;2023-03-03T09:28:00;13.77;;;6.20;;
69894;SDS011;57172;52.034;5.090;2023-03-03T09:30:37;15.25;;;6.60;;
69894;SDS011;57172;52.034;5.090;2023-03-03T09:38:53;11.75;;;5.30;;
69894;SDS011;57172;52.034;5.090;2023-03-03T09:41:25;13.20;;;5.50;;
69894;SDS011;57172;52.034;5.090;2023-03-03T09:44:10;14.30;;;5.70;;
69894;SDS011;57172;52.034;5.090;2023-03-03T09:46:51;11.57;;;5.60;;
69894;SDS011;57172;52.034;5.090;2023-03-03T10:14:30;11.65;;;5.30;;
69894;SDS011;57172;52.034;5.090;2023-03-03T10:22:34;8.17;;;4.77;;
69894;SDS011;57172;52.034;5.090;2023-03-03T10:30:45;6.97;;;3.90;;
69894;SDS011;57172;52.034;5.090;2023-03-03T10:33:45;7.30;;;4.10;;
69894;SDS011;57172;52.034;5.090;2023-03-03T10:42:23;7.90;;;3.80;;
69894;SDS011;57172;52.034;5.090;2023-03-03T10:44:59;7.65;;;3.80;;
69894;SDS011;57172;52.034;5.090;2023-03-03T10:47:52;6.47;;;3.70;;
69894;SDS011;57172;52.034;5.090;2023-03-03T11:01:48;6.45;;;4.25;;
69894;SDS011;57172;52.034;5.090;2023-03-03T11:07:20;6.47;;;3.80;;
69894;SDS011;57172;52.034;5.090;2023-03-03T11:24:56;6.32;;;3.33;;
69894;SDS011;57172;52.034;5.090;2023-03-03T11:27:43;9.35;;;3.90;;
69894;SDS011;57172;52.034;5.090;2023-03-03T11:33:22;6.50;;;3.10;;
69894;SDS011;57172;52.034;5.090;2023-03-03T11:41:28;5.05;;;2.60;;
69894;SDS011;57172;52.034;5.090;2023-03-03T11:46:59;4.70;;;2.30;;
69894;SDS011;57172;52.034;5.090;2023-03-03T11:56:13;6.88;;;2.22;;
69894;SDS011;57172;52.034;5.090;2023-03-03T11:58:57;4.18;;;2.30;;
69894;SDS011;57172;52.034;5.090;2023-03-03T12:04:21;5.65;;;2.45;;
69894;SDS011;57172;52.034;5.090;2023-03-03T12:12:35;4.18;;;2.00;;
69894;SDS011;57172;52.034;5.090;2023-03-03T12:28:57;2.80;;;1.70;;
69894;SDS011;57172;52.034;5.090;2023-03-03T12:34:13;5.03;;;2.17;;
69894;SDS011;57172;52.034;5.090;2023-03-03T12:39:49;3.40;;;1.88;;
69894;SDS011;57172;52.034;5.090;2023-03-03T12:42:42;3.90;;;1.80;;
69894;SDS011;57172;52.034;5.090;2023-03-03T12:45:45;4.72;;;1.83;;
69894;SDS011;57172;52.034;5.090;2023-03-03T12:48:40;6.07;;;2.00;;
69894;SDS011;57172;52.034;5.090;2023-03-03T13:08:20;3.78;;;2.00;;
69894;SDS011;57172;52.034;5.090;2023-03-03T13:11:00;6.17;;;2.13;;
69894;SDS011;57172;52.034;5.090;2023-03-03T13:13:47;5.03;;;2.03;;
69894;SDS011;57172;52.034;5.090;2023-03-03T13:16:30;3.90;;;2.10;;
69894;SDS011;57172;52.034;5.090;2023-03-03T13:19:08;5.60;;;2.10;;
69894;SDS011;57172;52.034;5.090;2023-03-03T13:21:51;5.57;;;2.17;;
69894;SDS011;57172;52.034;5.090;2023-03-03T13:24:39;5.83;;;2.10;;
69894;SDS011;57172;52.034;5.090;2023-03-03T13:27:15;4.40;;;2.00;;
69894;SDS011;57172;52.034;5.090;2023-03-03T13:30:14;6.60;;;2.30;;
69894;SDS011;57172;52.034;5.090;2023-03-03T13:35:48;4.63;;;2.08;;
69894;SDS011;57172;52.034;5.090;2023-03-03T13:38:19;3.73;;;1.80;;
69894;SDS011;57172;52.034;5.090;2023-03-03T13:40:50;4.90;;;2.15;;
69894;SDS011;57172;52.034;5.090;2023-03-03T13:43:25;3.88;;;1.85;;
69894;SDS011;57172;52.034;5.090;2023-03-03T13:54:25;3.70;;;1.80;;
69894;SDS011;57172;52.034;5.090;2023-03-03T13:57:59;4.40;;;1.65;;
69894;SDS011;57172;52.034;5.090;2023-03-03T14:03:10;4.13;;;1.67;;
69894;SDS011;57172;52.034;5.090;2023-03-03T14:05:44;4.97;;;1.80;;
69894;SDS011;57172;52.034;5.090;2023-03-03T14:08:21;3.83;;;1.63;;
69894;SDS011;57172;52.034;5.090;2023-03-03T14:19:25;4.77;;;1.90;;
69894;SDS011;57172;52.034;5.090;2023-03-03T14:25:01;4.72;;;2.17;;
69894;SDS011;57172;52.034;5.090;2023-03-03T14:27:35;4.53;;;2.03;;
69894;SDS011;57172;52.034;5.090;2023-03-03T14:32:57;3.70;;;1.73;;
69894;SDS011;57172;52.034;5.090;2023-03-03T14:35:32;3.55;;;1.80;;
69894;SDS011;57172;52.034;5.090;2023-03-03T14:38:14;7.22;;;1.80;;
69894;SDS011;57172;52.034;5.090;2023-03-03T14:40:43;3.92;;;2.00;;
69894;SDS011;57172;52.034;5.090;2023-03-03T14:43:32;3.95;;;2.00;;
69894;SDS011;57172;52.034;5.090;2023-03-03T14:48:58;6.30;;;1.85;;
69894;SDS011;57172;52.034;5.090;2023-03-03T14:51:28;4.72;;;1.70;;
69894;SDS011;57172;52.034;5.090;2023-03-03T14:54:04;10.73;;;1.80;;
69894;SDS011;57172;52.034;5.090;2023-03-03T14:56:52;5.45;;;2.05;;
69894;SDS011;57172;52.034;5.090;2023-03-03T14:59:25;4.87;;;1.93;;
69894;SDS011;57172;52.034;5.090;2023-03-03T15:04:43;4.68;;;1.80;;
69894;SDS011;57172;52.034;5.090;2023-03-03T15:07:45;5.20;;;2.03;;
69894;SDS011;57172;52.034;5.090;2023-03-03T15:10:06;6.30;;;2.00;;
69894;SDS011;57172;52.034;5.090;2023-03-03T15:25:58;4.50;;;2.40;;
69894;SDS011;57172;52.034;5.090;2023-03-03T15:48:29;4.07;;;2.00;;
69894;SDS011;57172;52.034;5.090;2023-03-03T15:56:36;3.65;;;2.08;;
69894;SDS011;57172;52.034;5.090;2023-03-03T16:04:24;4.18;;;2.40;;
69894;SDS011;57172;52.034;5.090;2023-03-03T16:12:30;5.03;;;2.90;;
69894;SDS011;57172;52.034;5.090;2023-03-03T16:15:20;4.35;;;2.55;;
69894;SDS011;57172;52.034;5.090;2023-03-03T16:24:07;8.25;;;2.85;;
69894;SDS011;57172;52.034;5.090;2023-03-03T16:35:21;7.90;;;3.23;;
69894;SDS011;57172;52.034;5.090;2023-03-03T16:37:56;7.07;;;2.80;;
69894;SDS011;57172;52.034;5.090;2023-03-03T16:40:29;6.70;;;2.90;;
69894;SDS011;57172;52.034;5.090;2023-03-03T16:45:57;7.53;;;2.80;;
69894;SDS011;57172;52.034;5.090;2023-03-03T16:48:41;10.77;;;3.50;;
69894;SDS011;57172;52.034;5.090;2023-03-03T16:54:10;6.78;;;2.38;;
69894;SDS011;57172;52.034;5.090;2023-03-03T16:59:40;5.45;;;2.45;;
69894;SDS011;57172;52.034;5.090;2023-03-03T17:15:42;6.37;;;2.80;;
69894;SDS011;57172;52.034;5.090;2023-03-03T17:21:16;8.13;;;2.50;;
69894;SDS011;57172;52.034;5.090;2023-03-03T17:26:49;5.00;;;2.17;;
69894;SDS011;57172;52.034;5.090;2023-03-03T17:32:12;7.13;;;2.40;;
69894;SDS011;57172;52.034;5.090;2023-03-03T17:40:07;5.93;;;2.33;;
69894;SDS011;57172;52.034;5.090;2023-03-03T17:45:41;6.53;;;2.45;;
69894;SDS011;57172;52.034;5.090;2023-03-03T17:51:04;7.78;;;2.35;;
69894;SDS011;57172;52.034;5.090;2023-03-03T17:59:59;9.88;;;2.60;;
69894;SDS011;57172;52.034;5.090;2023-03-03T18:05:43;8.45;;;2.78;;
69894;SDS011;57172;52.034;5.090;2023-03-03T18:08:36;7.95;;;2.50;;
69894;SDS011;57172;52.034;5.090;2023-03-03T18:22:31;8.70;;;3.20;;
69894;SDS011;57172;52.034;5.090;2023-03-03T18:25:10;10.00;;;3.10;;
69894;SDS011;57172;52.034;5.090;2023-03-03T18:27:44;14.32;;;3.10;;
69894;SDS011;57172;52.034;5.090;2023-03-03T18:30:14;9.23;;;3.50;;
69894;SDS011;57172;52.034;5.090;2023-03-03T18:35:41;15.82;;;3.88;;
69894;SDS011;57172;52.034;5.090;2023-03-03T19:05:16;13.50;;;3.10;;
69894;SDS011;57172;52.034;5.090;2023-03-03T19:10:48;14.27;;;3.00;;
69894;SDS011;57172;52.034;5.090;2023-03-03T19:16:03;14.93;;;3.33;;
69894;SDS011;57172;52.034;5.090;2023-03-03T19:18:56;12.37;;;3.33;;
69894;SDS011;57172;52.034;5.090;2023-03-03T19:21:24;15.48;;;3.20;;
69894;SDS011;57172;52.034;5.090;2023-03-03T19:29:57;14.50;;;3.30;;
69894;SDS011;57172;52.034;5.090;2023-03-03T19:41:25;13.27;;;3.10;;
69894;SDS011;57172;52.034;5.090;2023-03-03T19:44:14;12.98;;;3.40;;
69894;SDS011;57172;52.034;5.090;2023-03-03T19:47:05;14.63;;;2.90;;
69894;SDS011;57172;52.034;5.090;2023-03-03T19:53:04;16.65;;;3.17;;
69894;SDS011;57172;52.034;5.090;2023-03-03T19:58:26;19.48;;;3.83;;
69894;SDS011;57172;52.034;5.090;2023-03-03T20:01:18;14.40;;;3.50;;
69894;SDS011;57172;52.034;5.090;2023-03-03T20:04:03;14.43;;;3.22;;
69894;SDS011;57172;52.034;5.090;2023-03-03T20:12:44;10.82;;;2.58;;
69894;SDS011;57172;52.034;5.090;2023-03-03T20:15:31;11.83;;;3.23;;
69894;SDS011;57172;52.034;5.090;2023-03-03T20:21:10;14.43;;;2.60;;
69894;SDS011;57172;52.034;5.090;2023-03-03T20:26:28;15.32;;;2.90;;
69894;SDS011;57172;52.034;5.090;2023-03-03T20:31:52;12.63;;;2.40;;
69894;SDS011;57172;52.034;5.090;2023-03-03T20:37:08;15.98;;;2.80;;
69894;SDS011;57172;52.034;5.090;2023-03-03T20:45:03;12.52;;;2.53;;
69894;SDS011;57172;52.034;5.090;2023-03-03T20:53:17;15.18;;;2.50;;
69894;SDS011;57172;52.034;5.090;2023-03-03T20:56:06;15.73;;;2.73;;
69894;SDS011;57172;52.034;5.090;2023-03-03T20:59:00;15.18;;;2.65;;
69894;SDS011;57172;52.034;5.090;2023-03-03T21:01:45;16.48;;;3.00;;
69894;SDS011;57172;52.034;5.090;2023-03-03T21:06:51;15.45;;;2.72;;
69894;SDS011;57172;52.034;5.090;2023-03-03T21:12:01;14.45;;;2.92;;
69894;SDS011;57172;52.034;5.090;2023-03-03T21:15:02;16.83;;;2.60;;
69894;SDS011;57172;52.034;5.090;2023-03-03T21:17:32;15.00;;;2.63;;
69894;SDS011;57172;52.034;5.090;2023-03-03T21:20:16;14.20;;;2.72;;
69894;SDS011;57172;52.034;5.090;2023-03-03T21:22:45;20.00;;;3.13;;
69894;SDS011;57172;52.034;5.090;2023-03-03T21:25:40;12.35;;;2.70;;
69894;SDS011;57172;52.034;5.090;2023-03-03T21:28:12;18.77;;;3.10;;
69894;SDS011;57172;52.034;5.090;2023-03-03T21:36:24;19.53;;;2.77;;
69894;SDS011;57172;52.034;5.090;2023-03-03T21:42:12;14.02;;;3.20;;
69894;SDS011;57172;52.034;5.090;2023-03-03T21:44:45;15.93;;;2.92;;
69894;SDS011;57172;52.034;5.090;2023-03-03T21:47:17;13.02;;;2.65;;
69894;SDS011;57172;52.034;5.090;2023-03-03T21:49:46;17.43;;;3.07;;
69894;SDS011;57172;52.034;5.090;2023-03-03T21:52:15;13.07;;;2.60;;
69894;SDS011;57172;52.034;5.090;2023-03-03T21:54:48;22.83;;;2.85;;
69894;SDS011;57172;52.034;5.090;2023-03-03T21:57:18;14.70;;;2.58;;
69894;SDS011;57172;52.034;5.090;2023-03-03T21:59:45;17.48;;;3.00;;
69894;SDS011;57172;52.034;5.090;2023-03-03T22:02:13;19.23;;;2.43;;
69894;SDS011;57172;52.034;5.090;2023-03-03T22:04:39;12.45;;;2.47;;
69894;SDS011;57172;52.034;5.090;2023-03-03T22:07:07;11.25;;;2.30;;
69894;SDS011;57172;52.034;5.090;2023-03-03T22:09:35;17.88;;;3.00;;
69894;SDS011;57172;52.034;5.090;2023-03-03T22:12:03;15.85;;;2.72;;
69894;SDS011;57172;52.034;5.090;2023-03-03T22:14:30;15.17;;;2.50;;
69894;SDS011;57172;52.034;5.090;2023-03-03T22:16:57;21.40;;;3.47;;
69894;SDS011;57172;52.034;5.090;2023-03-03T22:19:24;13.10;;;2.50;;
69894;SDS011;57172;52.034;5.090;2023-03-03T22:21:51;15.43;;;2.95;;